Time;durP1;ratioP1;P1;durP2;ratioP2;P2;SDS_P1;SDS_P2;PMS_P1;PMS_P2;Temp;Humidity;BMP_temperature;BMP_pressure;BME280_temperature;BME280_humidity;BME280_pressure;Samples;Min_cycle;Max_cycle;Signal;HPM_P1;HPM_P2
2022/07/27 07:59:03;;;;;;;4.78;2.50;;;;;;;17.10;59.62;101932.78;5306821;27;1196396;-77
2022/07/27 08:01:35;;;;;;;5.15;1.70;;;;;;;17.36;60.71;101936.81;5344020;27;20028;-76
2022/07/27 08:04:09;;;;;;;5.35;1.90;;;;;;;17.33;59.32;101939.38;5328947;27;20024;-73
2022/07/27 08:06:40;;;;;;;5.13;1.55;;;;;;;17.39;60.76;101939.00;5336536;28;20478;-74
2022/07/27 08:09:13;;;;;;;2.97;2.20;;;;;;;17.51;61.70;101943.25;5343344;28;20023;-75
2022/07/27 08:11:44;;;;;;;4.47;1.80;;;;;;;17.83;60.69;101938.72;5341859;27;20023;-74
2022/07/27 08:14:16;;;;;;;5.05;1.83;;;;;;;17.45;60.36;101944.50;5343012;28;20482;-75
2022/07/27 08:16:50;;;;;;;3.88;1.52;;;;;;;17.45;60.73;101953.72;5343515;27;20027;-76
2022/07/27 08:19:21;;;;;;;4.63;1.52;;;;;;;17.59;60.96;101956.56;5342844;27;20475;-77
2022/07/27 08:21:52;;;;;;;3.78;1.48;;;;;;;17.41;57.90;101951.84;5343519;28;20016;-77
2022/07/27 08:24:24;;;;;;;3.97;1.50;;;;;;;17.25;60.28;101952.13;5343409;28;20016;-76
2022/07/27 08:26:55;;;;;;;5.07;1.63;;;;;;;17.10;62.44;101944.88;5338330;28;20035;-75
2022/07/27 08:29:26;;;;;;;4.15;1.75;;;;;;;17.18;63.20;101940.53;5339025;28;20024;-75
2022/07/27 08:31:57;;;;;;;4.82;2.65;;;;;;;17.09;62.43;101943.19;5343016;28;20027;-74
2022/07/27 08:34:29;;;;;;;3.70;1.52;;;;;;;17.34;61.26;101947.50;5340723;27;20027;-76
2022/07/27 08:37:00;;;;;;;3.85;1.65;;;;;;;17.20;60.44;101938.22;5342893;28;20036;-78
2022/07/27 08:39:32;;;;;;;2.22;1.23;;;;;;;17.26;59.78;101936.19;5330309;27;20027;-76
2022/07/27 08:42:08;;;;;;;4.65;2.15;;;;;;;17.53;58.82;101940.97;5341388;28;20028;-77
2022/07/27 08:44:40;;;;;;;3.03;1.38;;;;;;;17.62;56.84;101930.69;5342609;27;20023;-75
2022/07/27 08:47:14;;;;;;;4.55;1.35;;;;;;;17.77;54.37;101936.00;5342536;27;20069;-74
2022/07/27 08:49:46;;;;;;;5.65;1.77;;;;;;;17.74;54.92;101942.25;5342997;27;20024;-74
2022/07/27 08:52:18;;;;;;;3.63;1.15;;;;;;;17.97;53.57;101940.38;5342200;27;20019;-73
2022/07/27 08:54:50;;;;;;;2.65;1.13;;;;;;;18.25;52.43;101938.38;5341595;27;20431;-74
2022/07/27 08:57:21;;;;;;;3.60;1.33;;;;;;;18.34;52.76;101938.44;5341676;28;20051;-74
2022/07/27 08:59:55;;;;;;;3.65;1.38;;;;;;;18.61;53.38;101940.34;5343026;28;20400;-73
2022/07/27 09:02:26;;;;;;;2.03;1.13;;;;;;;18.45;52.13;101942.66;5340378;27;20523;-75
2022/07/27 09:04:58;;;;;;;4.20;1.70;;;;;;;18.32;51.62;101949.16;5342344;27;20032;-74
2022/07/27 09:07:30;;;;;;;5.40;1.95;;;;;;;18.47;53.47;101943.19;5341272;28;20023;-76
2022/07/27 09:10:03;;;;;;;6.38;3.92;;;;;;;18.63;55.93;101946.44;5330530;27;20501;-77
2022/07/27 09:12:35;;;;;;;4.22;1.67;;;;;;;18.69;51.46;101938.75;5327894;28;20375;-75
2022/07/27 09:15:09;;;;;;;4.35;1.20;;;;;;;18.84;54.51;101945.97;5327889;28;20028;-80
2022/07/27 09:17:43;;;;;;;2.67;1.30;;;;;;;18.83;48.38;101947.97;5328072;28;20028;-76
2022/07/27 09:20:18;;;;;;;6.32;1.17;;;;;;;19.04;49.35;101945.47;5327504;28;20110;-74
2022/07/27 09:22:54;;;;;;;11.38;7.57;;;;;;;18.94;48.97;101942.91;5327115;28;20028;-75
2022/07/27 09:25:29;;;;;;;24.77;20.70;;;;;;;18.89;48.47;101951.47;5328214;27;20431;-74
2022/07/27 09:28:00;;;;;;;5.97;1.27;;;;;;;18.59;48.71;101955.84;5327963;28;20081;-74
2022/07/27 09:30:39;;;;;;;7.03;2.55;;;;;;;18.53;49.44;101948.69;5326098;28;20035;-79
2022/07/27 09:33:14;;;;;;;3.30;1.35;;;;;;;18.51;50.09;101954.63;5322882;28;20047;-74
2022/07/27 09:35:57;;;;;;;5.45;1.50;;;;;;;18.44;52.78;101943.00;5326852;28;20446;-76
2022/07/27 09:38:28;;;;;;;2.63;1.20;;;;;;;18.30;54.46;101947.81;5329453;28;20463;-79
2022/07/27 09:41:01;;;;;;;5.35;2.13;;;;;;;18.36;55.43;101952.19;5329120;28;20026;-79
2022/07/27 09:43:55;;;;;;;5.82;1.40;;;;;;;18.45;54.73;101950.25;5327063;28;20056;-82
2022/07/27 09:46:40;;;;;;;6.28;1.73;;;;;;;18.43;54.50;101959.03;5327492;28;20023;-81
2022/07/27 09:49:30;;;;;;;4.78;1.38;;;;;;;18.44;55.04;101955.06;5327944;28;20382;-78
2022/07/27 09:52:02;;;;;;;9.30;3.10;;;;;;;18.28;55.63;101950.09;5326688;28;20023;-79
2022/07/27 09:54:45;;;;;;;8.35;3.65;;;;;;;18.29;56.40;101944.16;5327700;27;20020;-78
2022/07/27 09:57:19;;;;;;;13.05;8.45;;;;;;;18.12;56.89;101947.63;5326634;28;20032;-79
2022/07/27 10:00:09;;;;;;;24.05;9.05;;;;;;;18.10;57.54;101952.75;5306598;28;20024;-82
2022/07/27 10:02:41;;;;;;;5.47;2.50;;;;;;;18.10;57.09;101952.75;5307183;28;20422;-78
2022/07/27 10:05:16;;;;;;;6.50;1.42;;;;;;;17.99;56.91;101954.91;5317633;28;20031;-78
2022/07/27 10:07:50;;;;;;;6.25;2.67;;;;;;;18.18;58.07;101952.00;5327303;28;20027;-77
2022/07/27 10:10:22;;;;;;;5.07;2.15;;;;;;;18.35;58.03;101958.91;5326534;28;20034;-78
2022/07/27 10:12:53;;;;;;;6.35;2.17;;;;;;;18.19;56.75;101953.66;5325828;28;20020;-78
2022/07/27 10:15:25;;;;;;;4.88;1.30;;;;;;;18.27;56.99;101952.06;5326325;28;20069;-76
2022/07/27 10:18:06;;;;;;;2.42;1.58;;;;;;;18.52;56.47;101947.03;5324269;28;20058;-78
2022/07/27 10:20:41;;;;;;;7.60;2.25;;;;;;;18.65;56.02;101944.16;5322975;28;20115;-78
2022/07/27 10:23:28;;;;;;;4.13;1.55;;;;;;;18.97;55.15;101950.72;5326110;28;20050;-77
2022/07/27 10:26:20;;;;;;;6.57;2.20;;;;;;;18.91;54.58;101949.19;5325829;28;20049;-78
2022/07/27 10:28:57;;;;;;;14.32;12.80;;;;;;;18.71;54.44;101941.22;5325438;28;20089;-78
2022/07/27 10:31:36;;;;;;;8.57;4.32;;;;;;;18.73;55.27;101944.53;5324631;28;20183;-78
2022/07/27 10:34:09;;;;;;;5.72;1.80;;;;;;;18.74;56.44;101938.63;5320643;28;20026;-78
2022/07/27 10:36:53;;;;;;;6.25;1.95;;;;;;;18.98;55.53;101935.50;5322122;28;20031;-76
2022/07/27 10:39:33;;;;;;;6.95;1.55;;;;;;;19.17;53.82;101934.47;5325469;28;20028;-77
2022/07/27 10:42:28;;;;;;;7.93;2.17;;;;;;;19.50;52.77;101927.34;5324369;28;20070;-77
2022/07/27 10:45:11;;;;;;;5.60;1.93;;;;;;;19.69;51.58;101926.31;5317751;28;20072;-78
2022/07/27 10:47:50;;;;;;;12.05;8.80;;;;;;;19.68;49.07;101927.44;5316340;28;20277;-77
2022/07/27 10:50:25;;;;;;;4.15;2.38;;;;;;;19.58;49.37;101922.09;5324450;28;20027;-77
2022/07/27 10:52:58;;;;;;;6.80;2.22;;;;;;;19.40;51.09;101918.38;5325332;27;20095;-76
2022/07/27 10:55:30;;;;;;;2.60;1.30;;;;;;;19.28;52.37;101914.19;5325761;28;20034;-76
2022/07/27 10:58:13;;;;;;;4.10;1.70;;;;;;;19.23;52.87;101924.75;5324767;28;20048;-76
2022/07/27 11:00:48;;;;;;;5.82;3.15;;;;;;;19.16;51.31;101918.75;5324489;28;20028;-74
2022/07/27 11:03:25;;;;;;;7.53;2.50;;;;;;;19.26;53.01;101918.47;5324920;28;20141;-75
2022/07/27 11:06:02;;;;;;;3.90;1.77;;;;;;;19.06;51.49;101926.28;5312780;28;20015;-75
2022/07/27 11:08:37;;;;;;;5.05;1.50;;;;;;;19.01;52.82;101923.63;5319474;28;20023;-75
2022/07/27 11:11:13;;;;;;;6.00;1.90;;;;;;;19.07;51.20;101924.31;5324927;28;20042;-77
2022/07/27 11:13:50;;;;;;;6.95;4.55;;;;;;;19.19;52.61;101920.91;5325196;28;20493;-76
2022/07/27 11:16:22;;;;;;;8.40;5.53;;;;;;;19.15;53.89;101919.88;5324464;28;20471;-74
2022/07/27 11:18:57;;;;;;;9.70;6.63;;;;;;;19.08;51.62;101929.63;5324494;28;20038;-77
2022/07/27 11:21:36;;;;;;;25.55;18.83;;;;;;;18.90;51.95;101922.22;5324286;28;20035;-79
2022/07/27 11:24:13;;;;;;;6.38;2.33;;;;;;;18.88;52.40;101918.91;5320134;28;20027;-78
2022/07/27 11:26:48;;;;;;;6.30;1.75;;;;;;;18.95;52.55;101919.28;5310523;28;20051;-80
2022/07/27 11:29:22;;;;;;;4.53;1.73;;;;;;;19.13;51.46;101919.41;5304778;28;20032;-79
2022/07/27 11:31:56;;;;;;;8.75;7.57;;;;;;;19.21;51.84;101913.00;5318899;28;20114;-77
2022/07/27 11:34:29;;;;;;;3.05;2.03;;;;;;;19.18;51.79;101908.84;5325292;28;20027;-78
2022/07/27 11:37:04;;;;;;;2.88;1.55;;;;;;;19.27;50.50;101906.88;5312725;28;20035;-77
2022/07/27 11:39:35;;;;;;;4.85;1.65;;;;;;;19.20;50.71;101908.50;5323806;28;20012;-76
2022/07/27 11:42:07;;;;;;;5.72;1.83;;;;;;;19.19;50.54;101916.13;5323954;28;20012;-79
2022/07/27 11:44:41;;;;;;;5.22;2.00;;;;;;;19.17;50.46;101909.16;5324616;28;20375;-77
2022/07/27 11:47:19;;;;;;;6.70;2.30;;;;;;;19.31;50.68;101909.91;5324937;28;20027;-76
2022/07/27 11:49:50;;;;;;;7.13;3.55;;;;;;;19.37;50.94;101908.59;5321501;28;20505;-77
2022/07/27 11:52:24;;;;;;;8.15;2.58;;;;;;;19.37;47.10;101910.59;5324850;28;20047;-77
2022/07/27 11:54:55;;;;;;;4.00;2.15;;;;;;;19.53;48.60;101906.16;5324708;28;20034;-80
2022/07/27 11:57:33;;;;;;;4.28;1.65;;;;;;;19.58;48.32;101905.19;5324271;28;20434;-80
2022/07/27 12:00:05;;;;;;;6.47;2.10;;;;;;;19.58;49.07;101910.81;5325028;28;20077;-74
2022/07/27 12:02:46;;;;;;;7.30;1.83;;;;;;;19.58;48.80;101905.19;5324322;28;20471;-73
2022/07/27 12:05:17;;;;;;;6.05;1.70;;;;;;;19.62;47.52;101904.22;5323588;28;20461;-77
2022/07/27 12:07:48;;;;;;;2.80;1.65;;;;;;;19.89;47.87;101908.81;5324300;28;20111;-76
2022/07/27 12:10:20;;;;;;;4.45;1.50;;;;;;;20.27;46.62;101908.19;5323313;28;20420;-77
2022/07/27 12:12:52;;;;;;;4.90;1.52;;;;;;;20.35;47.23;101901.75;5324475;28;20072;-78
2022/07/27 12:15:23;;;;;;;10.82;8.43;;;;;;;20.41;41.29;101897.63;5321326;28;20019;-77
2022/07/27 12:17:58;;;;;;;6.65;3.75;;;;;;;20.64;44.07;101894.66;5324695;28;20081;-78
2022/07/27 12:20:34;;;;;;;10.30;8.13;;;;;;;20.71;40.36;101902.59;5325302;28;20481;-77
2022/07/27 12:23:07;;;;;;;4.85;2.20;;;;;;;20.98;41.94;101909.84;5324983;28;20675;-76
2022/07/27 12:25:40;;;;;;;3.03;1.30;;;;;;;20.81;39.05;101897.47;5324306;28;20027;-76
2022/07/27 12:28:14;;;;;;;4.55;1.30;;;;;;;20.96;40.79;101900.91;5325149;28;20031;-77
2022/07/27 12:30:48;;;;;;;3.85;1.60;;;;;;;21.08;40.13;101903.84;5324722;28;20023;-77
2022/07/27 12:33:25;;;;;;;2.95;2.08;;;;;;;21.09;41.49;101907.50;5324134;28;20487;-77
2022/07/27 12:35:58;;;;;;;3.30;1.40;;;;;;;21.28;40.99;101908.78;5325119;28;20096;-78
2022/07/27 12:38:37;;;;;;;8.68;1.52;;;;;;;21.44;40.42;101896.97;5322356;28;20036;-77
2022/07/27 12:41:09;;;;;;;4.43;1.33;;;;;;;21.30;39.16;101904.81;5323696;28;20039;-77
2022/07/27 12:43:40;;;;;;;2.47;1.30;;;;;;;21.39;39.34;101894.31;5324739;28;20020;-78
2022/07/27 12:46:12;;;;;;;3.00;1.52;;;;;;;21.57;39.46;101897.91;5328204;28;20421;-78
2022/07/27 12:48:44;;;;;;;2.00;1.40;;;;;;;21.49;40.01;101889.13;5328295;28;20073;-77
2022/07/27 12:51:22;;;;;;;2.28;1.23;;;;;;;21.32;39.64;101882.69;5328810;28;20015;-74
2022/07/27 12:53:53;;;;;;;3.55;1.20;;;;;;;21.53;39.75;101874.38;5328131;28;20145;-78
2022/07/27 12:56:24;;;;;;;8.02;2.17;;;;;;;21.56;37.47;101868.03;5328896;28;20114;-78
2022/07/27 12:59:01;;;;;;;4.97;1.40;;;;;;;21.73;36.88;101869.91;5328343;28;20044;-79
2022/07/27 13:01:32;;;;;;;4.13;1.35;;;;;;;22.04;38.71;101864.75;5324737;28;20039;-75
2022/07/27 13:04:03;;;;;;;8.50;1.92;;;;;;;22.23;38.19;101861.44;5327081;28;20153;-77
2022/07/27 13:06:35;;;;;;;3.75;1.20;;;;;;;22.27;36.03;101865.25;5328553;28;20035;-79
2022/07/27 13:09:06;;;;;;;2.85;1.45;;;;;;;22.30;36.85;101858.09;5329164;28;20034;-76
2022/07/27 13:11:37;;;;;;;4.82;1.70;;;;;;;22.38;36.07;101853.53;5328879;28;20038;-78
2022/07/27 13:14:09;;;;;;;1.58;1.10;;;;;;;22.73;36.09;101859.69;5327841;28;20106;-77
2022/07/27 13:16:40;;;;;;;2.03;1.10;;;;;;;22.84;35.71;101855.22;5328195;28;20459;-76
2022/07/27 13:19:14;;;;;;;5.82;3.42;;;;;;;22.60;33.75;101853.16;5327632;28;20117;-75
2022/07/27 13:21:46;;;;;;;1.73;1.10;;;;;;;22.91;34.51;101849.84;5327336;28;20528;-74
2022/07/27 13:24:17;;;;;;;2.97;1.73;;;;;;;22.96;34.16;101851.63;5328238;28;20011;-76
2022/07/27 13:26:48;;;;;;;1.90;1.40;;;;;;;22.89;33.27;101843.69;5328302;28;20471;-79
2022/07/27 13:29:20;;;;;;;2.60;1.00;;;;;;;23.04;33.36;101847.88;5327630;28;20453;-77
2022/07/27 13:31:51;;;;;;;2.35;1.80;;;;;;;23.21;33.45;101839.19;5329735;28;20035;-80
2022/07/27 13:34:23;;;;;;;4.32;1.70;;;;;;;23.14;33.57;101835.28;5324545;28;20024;-81
2022/07/27 13:36:55;;;;;;;3.03;1.65;;;;;;;23.17;33.83;101823.28;5327120;27;20426;-81
2022/07/27 13:39:26;;;;;;;4.30;2.58;;;;;;;23.40;34.12;101830.13;5329001;28;20463;-81
2022/07/27 13:41:57;;;;;;;3.40;1.40;;;;;;;23.25;33.56;101825.16;5328707;28;20114;-80
2022/07/27 13:44:29;;;;;;;2.20;1.52;;;;;;;23.05;32.92;101831.72;5328950;28;20031;-82
2022/07/27 13:47:01;;;;;;;16.30;14.20;;;;;;;22.67;33.41;101832.78;5329299;28;20073;-80
2022/07/27 13:49:35;;;;;;;19.73;16.02;;;;;;;22.52;35.51;101835.13;5328253;28;20031;-80
2022/07/27 13:52:08;;;;;;;11.93;10.65;;;;;;;22.47;35.94;101832.50;5328084;28;20035;-80
2022/07/27 13:54:40;;;;;;;7.32;4.25;;;;;;;22.42;35.77;101827.06;5329069;28;20030;-81
2022/07/27 13:57:11;;;;;;;3.00;1.98;;;;;;;22.45;35.09;101829.19;5319706;28;20062;-81
2022/07/27 13:59:43;;;;;;;2.97;1.20;;;;;;;22.45;34.61;101820.72;5309632;28;20079;-79
2022/07/27 14:02:14;;;;;;;2.42;1.00;;;;;;;22.90;34.40;101824.72;5328277;28;20030;-81
2022/07/27 14:04:47;;;;;;;4.97;1.80;;;;;;;22.72;35.03;101827.72;5326605;28;20129;-78
2022/07/27 14:07:18;;;;;;;3.70;1.40;;;;;;;22.45;36.47;101826.38;5327736;27;20031;-71
2022/07/27 14:12:39;;;;;;;3.17;1.30;;;;;;;22.43;37.57;101833.53;5326642;28;20032;-73
2022/07/27 14:15:10;;;;;;;4.05;1.40;;;;;;;22.41;37.37;101819.75;5327061;28;20463;-71
2022/07/27 14:17:44;;;;;;;6.30;2.92;;;;;;;22.28;37.69;101820.88;5324363;28;20482;-72
2022/07/27 14:20:16;;;;;;;47.00;42.15;;;;;;;22.22;37.79;101816.63;5326911;28;20032;-71
2022/07/27 14:22:47;;;;;;;3.70;2.10;;;;;;;22.31;37.89;101817.34;5317966;28;20020;-72
2022/07/27 14:25:18;;;;;;;4.43;1.85;;;;;;;22.29;37.75;101817.72;5315485;28;20027;-79
2022/07/27 14:27:50;;;;;;;5.82;2.80;;;;;;;22.09;36.88;101812.88;5334232;28;20027;-80
2022/07/27 14:30:22;;;;;;;4.97;1.88;;;;;;;22.09;38.25;101812.88;5331733;28;20024;-83
2022/07/27 14:32:53;;;;;;;3.42;1.30;;;;;;;22.30;36.93;101810.88;5342547;28;20031;-86
2022/07/27 14:35:25;;;;;;;4.93;2.58;;;;;;;22.71;36.43;101808.31;5328887;28;20031;-85
2022/07/27 14:37:58;;;;;;;7.00;1.60;;;;;;;22.74;36.52;101801.94;5337872;28;20032;-88
2022/07/27 14:40:30;;;;;;;2.65;1.33;;;;;;;22.91;33.01;101798.94;5340187;28;20016;-85
2022/07/27 14:43:01;;;;;;;2.45;1.00;;;;;;;23.11;35.35;101799.19;5340693;28;20027;-87
2022/07/27 14:45:33;;;;;;;3.60;1.27;;;;;;;22.99;33.99;101794.38;5339184;28;20023;-88
2022/07/27 14:48:05;;;;;;;2.72;1.10;;;;;;;23.28;35.60;101789.66;5328565;28;20019;-82
2022/07/27 14:50:36;;;;;;;4.07;2.55;;;;;;;23.26;33.16;101797.69;5327565;28;20031;-82
2022/07/27 14:53:10;;;;;;;5.80;1.65;;;;;;;23.27;32.59;101790.84;5325009;28;20015;-83
2022/07/27 14:55:41;;;;;;;4.40;1.60;;;;;;;23.55;33.15;101793.78;5327012;28;20394;-81
2022/07/27 14:58:13;;;;;;;6.22;4.35;;;;;;;23.47;31.12;101791.88;5326207;28;20096;-80
2022/07/27 15:00:44;;;;;;;3.40;2.65;;;;;;;23.50;32.39;101786.34;5325145;28;20028;-81
2022/07/27 15:03:16;;;;;;;2.85;1.17;;;;;;;23.66;33.57;101787.25;5323328;28;20066;-79
2022/07/27 15:05:47;;;;;;;5.90;2.03;;;;;;;23.35;32.69;101799.22;5326118;28;20016;-79
2022/07/27 15:08:19;;;;;;;2.72;1.02;;;;;;;23.48;34.16;101788.72;5324188;28;20084;-81
2022/07/27 15:10:50;;;;;;;4.88;1.05;;;;;;;23.57;34.15;101782.91;5325768;28;20024;-82
2022/07/27 15:13:22;;;;;;;2.60;1.55;;;;;;;23.36;33.04;101789.53;5325016;28;20053;-81
2022/07/27 15:15:54;;;;;;;3.22;1.00;;;;;;;23.19;34.16;101784.13;5326836;28;20031;-80
2022/07/27 15:18:26;;;;;;;3.80;1.35;;;;;;;23.00;33.47;101788.34;5324417;28;20127;-80
2022/07/27 15:20:57;;;;;;;5.47;1.85;;;;;;;23.07;33.88;101772.81;5324757;28;20102;-80
2022/07/27 15:23:28;;;;;;;4.32;1.80;;;;;;;23.33;34.04;101781.75;5325792;28;20027;-79
2022/07/27 15:26:00;;;;;;;3.00;1.38;;;;;;;23.09;35.15;101787.44;5326063;28;20019;-81
2022/07/27 15:28:31;;;;;;;2.53;1.27;;;;;;;23.02;35.55;101784.34;5325861;28;20027;-80
2022/07/27 15:31:03;;;;;;;3.80;1.48;;;;;;;22.93;35.26;101788.09;5324418;28;20020;-83
2022/07/27 15:33:34;;;;;;;6.95;4.20;;;;;;;22.87;36.51;101783.81;5321447;28;20051;-84
2022/07/27 15:36:06;;;;;;;3.55;2.33;;;;;;;22.74;37.05;101785.81;5324957;28;20383;-81
2022/07/27 15:38:37;;;;;;;3.65;2.47;;;;;;;22.53;37.98;101783.06;5316346;28;20405;-80
2022/07/27 15:41:09;;;;;;;6.80;2.00;;;;;;;22.57;39.07;101784.00;5325369;28;20031;-80
2022/07/27 15:43:41;;;;;;;4.22;2.05;;;;;;;22.43;39.07;101789.13;5324470;28;20408;-81
2022/07/27 15:46:13;;;;;;;4.90;1.23;;;;;;;22.38;39.72;101792.19;5325908;28;20110;-80
2022/07/27 15:48:44;;;;;;;2.28;1.30;;;;;;;22.46;40.08;101781.97;5324449;28;20020;-76
2022/07/27 15:51:18;;;;;;;2.45;1.30;;;;;;;22.39;40.09;101788.16;5325241;28;20016;-77
2022/07/27 15:53:49;;;;;;;5.22;2.60;;;;;;;22.35;39.54;101787.22;5324256;28;20119;-76
2022/07/27 15:56:21;;;;;;;3.72;1.30;;;;;;;22.44;40.39;101782.31;5326287;28;20519;-82
2022/07/27 15:58:52;;;;;;;4.47;1.70;;;;;;;22.30;40.35;101776.97;5325130;28;20107;-83
2022/07/27 16:01:23;;;;;;;4.38;1.23;;;;;;;22.31;40.73;101774.97;5325431;28;20120;-78
2022/07/27 16:03:55;;;;;;;3.90;1.60;;;;;;;22.29;40.92;101777.31;5325029;28;20047;-82
2022/07/27 16:06:26;;;;;;;3.22;1.35;;;;;;;22.01;41.17;101771.38;5325841;28;20028;-75
2022/07/27 16:08:58;;;;;;;4.10;1.40;;;;;;;22.22;40.97;101771.41;5324349;28;20031;-72
2022/07/27 16:11:30;;;;;;;5.13;1.20;;;;;;;22.20;40.15;101768.91;5323941;28;20463;-73
2022/07/27 16:14:01;;;;;;;3.38;1.48;;;;;;;22.18;39.65;101764.75;5323081;28;20020;-72
2022/07/27 16:16:32;;;;;;;11.95;9.82;;;;;;;22.24;39.89;101758.59;5324636;28;20383;-72
2022/07/27 16:19:04;;;;;;;6.68;4.22;;;;;;;22.12;39.37;101755.69;5325899;28;20379;-72
2022/07/27 16:21:35;;;;;;;4.97;1.80;;;;;;;22.20;39.66;101751.97;5329126;28;20030;-72
2022/07/27 16:24:07;;;;;;;5.45;1.92;;;;;;;22.12;39.86;101756.50;5327880;28;20468;-72
2022/07/27 16:26:38;;;;;;;2.78;1.40;;;;;;;22.07;39.29;101759.53;5329161;28;20458;-74
2022/07/27 16:29:09;;;;;;;3.55;1.75;;;;;;;22.19;39.67;101755.09;5328806;28;20031;-75
2022/07/27 16:31:40;;;;;;;3.45;1.30;;;;;;;22.15;39.13;101760.63;5328372;28;20374;-74
2022/07/27 16:34:12;;;;;;;6.07;3.20;;;;;;;22.21;39.89;101761.25;5328400;28;20024;-75
2022/07/27 16:36:43;;;;;;;9.73;6.40;;;;;;;22.02;40.06;101751.28;5322728;28;20020;-74
2022/07/27 16:39:15;;;;;;;4.28;2.72;;;;;;;22.04;40.29;101760.22;5326363;28;20031;-73
2022/07/27 16:41:46;;;;;;;6.40;1.63;;;;;;;22.06;40.01;101752.25;5328921;28;20039;-73
2022/07/27 16:44:19;;;;;;;3.08;1.40;;;;;;;22.03;39.70;101752.91;5328934;27;20027;-72
2022/07/27 16:46:50;;;;;;;3.40;1.60;;;;;;;22.14;39.40;101753.34;5327775;28;20042;-72
2022/07/27 16:49:21;;;;;;;4.70;1.50;;;;;;;21.98;40.08;101744.66;5328867;28;20024;-75
2022/07/27 16:51:53;;;;;;;2.20;1.30;;;;;;;22.02;39.77;101745.63;5327869;28;20134;-76
2022/07/27 16:54:24;;;;;;;5.30;1.48;;;;;;;22.01;39.72;101744.00;5327648;28;20023;-75
2022/07/27 16:56:56;;;;;;;3.90;1.50;;;;;;;21.92;40.35;101748.88;5328347;28;20027;-78
2022/07/27 16:59:27;;;;;;;4.10;1.50;;;;;;;21.81;40.76;101744.81;5327791;28;20041;-76
2022/07/27 17:01:58;;;;;;;6.05;1.83;;;;;;;21.85;40.60;101751.41;5322281;28;20113;-76
2022/07/27 17:04:30;;;;;;;8.05;1.88;;;;;;;21.91;40.90;101747.22;5313046;28;20020;-75
2022/07/27 17:07:01;;;;;;;4.07;1.85;;;;;;;21.86;41.09;101744.63;5310861;28;20018;-76
2022/07/27 17:09:33;;;;;;;2.85;1.58;;;;;;;21.75;40.95;101751.84;5327068;28;20462;-76
2022/07/27 17:12:04;;;;;;;10.80;6.60;;;;;;;21.60;40.31;101754.13;5328733;28;20501;-76
2022/07/27 17:14:36;;;;;;;3.75;1.50;;;;;;;21.70;40.44;101750.03;5326944;28;20020;-76
2022/07/27 17:17:07;;;;;;;4.03;1.63;;;;;;;21.69;40.40;101743.56;5328441;28;20055;-76
2022/07/27 17:19:40;;;;;;;10.50;7.97;;;;;;;21.94;40.23;101749.38;5327996;28;20020;-75
2022/07/27 17:22:12;;;;;;;2.25;1.38;;;;;;;21.85;39.70;101740.94;5327302;28;20027;-76
2022/07/27 17:24:43;;;;;;;3.05;1.35;;;;;;;21.91;40.09;101736.75;5327792;28;20467;-75
2022/07/27 17:27:14;;;;;;;4.53;1.30;;;;;;;22.02;39.98;101734.31;5327314;28;20454;-75
2022/07/27 17:29:46;;;;;;;2.45;1.60;;;;;;;22.00;39.02;101744.31;5327237;28;20112;-76
